sensor_id;sensor_type;location;lat;lon;timestamp;pressure;altitude;pressure_sealevel;temperature;humidity
59367;BME280;45163;47.690;11.770;2023-03-20T00:00:33;93504.91;;;6.99;100.00
59367;BME280;45163;47.690;11.770;2023-03-20T00:02:59;93507.25;;;6.97;100.00
59367;BME280;45163;47.690;11.770;2023-03-20T00:05:26;93501.81;;;6.97;100.00
59367;BME280;45163;47.690;11.770;2023-03-20T00:07:53;93503.06;;;6.89;100.00
59367;BME280;45163;47.690;11.770;2023-03-20T00:10:21;93501.91;;;6.90;100.00
59367;BME280;45163;47.690;11.770;2023-03-20T00:12:48;93510.38;;;6.95;100.00
59367;BME280;45163;47.690;11.770;2023-03-20T00:17:53;93507.25;;;6.97;100.00
59367;BME280;45163;47.690;11.770;2023-03-20T00:20:20;93508.38;;;6.99;100.00
59367;BME280;45163;47.690;11.770;2023-03-20T00:22:46;93503.75;;;6.96;100.00
59367;BME280;45163;47.690;11.770;2023-03-20T00:25:17;93503.78;;;6.93;100.00
59367;BME280;45163;47.690;11.770;2023-03-20T00:27:44;93501.09;;;6.93;100.00
59367;BME280;45163;47.690;11.770;2023-03-20T00:30:29;93502.31;;;6.88;100.00
59367;BME280;45163;47.690;11.770;2023-03-20T00:32:57;93502.75;;;6.83;100.00
59367;BME280;45163;47.690;11.770;2023-03-20T00:35:27;93505.50;;;6.80;100.00
59367;BME280;45163;47.690;11.770;2023-03-20T00:37:54;93510.44;;;6.88;100.00
59367;BME280;45163;47.690;11.770;2023-03-20T00:40:20;93512.13;;;6.79;100.00
59367;BME280;45163;47.690;11.770;2023-03-20T00:42:49;93511.34;;;6.78;100.00
59367;BME280;45163;47.690;11.770;2023-03-20T00:45:21;93509.88;;;6.70;100.00
59367;BME280;45163;47.690;11.770;2023-03-20T00:47:49;93508.72;;;6.71;100.00
59367;BME280;45163;47.690;11.770;2023-03-20T00:50:21;93509.84;;;6.73;100.00
59367;BME280;45163;47.690;11.770;2023-03-20T00:52:49;93509.03;;;6.77;100.00
59367;BME280;45163;47.690;11.770;2023-03-20T00:55:17;93508.66;;;6.74;100.00
59367;BME280;45163;47.690;11.770;2023-03-20T00:57:57;93511.41;;;6.71;100.00
59367;BME280;45163;47.690;11.770;2023-03-20T01:03:13;93509.97;;;6.63;100.00
59367;BME280;45163;47.690;11.770;2023-03-20T01:05:40;93514.16;;;6.67;100.00
59367;BME280;45163;47.690;11.770;2023-03-20T01:08:17;93515.03;;;6.61;100.00
59367;BME280;45163;47.690;11.770;2023-03-20T01:10:44;93513.13;;;6.58;100.00
59367;BME280;45163;47.690;11.770;2023-03-20T01:13:22;93509.34;;;6.48;100.00
59367;BME280;45163;47.690;11.770;2023-03-20T01:15:50;93515.44;;;6.56;100.00
59367;BME280;45163;47.690;11.770;2023-03-20T01:18:19;93517.38;;;6.59;100.00
59367;BME280;45163;47.690;11.770;2023-03-20T01:20:46;93515.81;;;6.58;100.00
59367;BME280;45163;47.690;11.770;2023-03-20T01:23:12;93520.19;;;6.48;100.00
59367;BME280;45163;47.690;11.770;2023-03-20T01:25:38;93513.94;;;6.51;100.00
59367;BME280;45163;47.690;11.770;2023-03-20T01:28:16;93519.75;;;6.53;100.00
59367;BME280;45163;47.690;11.770;2023-03-20T01:30:43;93514.72;;;6.52;100.00
59367;BME280;45163;47.690;11.770;2023-03-20T01:33:15;93517.94;;;6.39;100.00
59367;BME280;45163;47.690;11.770;2023-03-20T01:35:42;93511.66;;;6.49;100.00
59367;BME280;45163;47.690;11.770;2023-03-20T01:38:17;93514.69;;;6.55;100.00
59367;BME280;45163;47.690;11.770;2023-03-20T01:40:55;93526.78;;;6.47;100.00
59367;BME280;45163;47.690;11.770;2023-03-20T01:43:24;93522.47;;;6.53;100.00
59367;BME280;45163;47.690;11.770;2023-03-20T01:45:58;93524.72;;;6.58;100.00
59367;BME280;45163;47.690;11.770;2023-03-20T01:51:26;93521.69;;;6.53;100.00
59367;BME280;45163;47.690;11.770;2023-03-20T01:54:00;93526.44;;;6.41;100.00
59367;BME280;45163;47.690;11.770;2023-03-20T01:56:32;93516.34;;;6.45;100.00
59367;BME280;45163;47.690;11.770;2023-03-20T01:59:02;93519.88;;;6.39;100.00
59367;BME280;45163;47.690;11.770;2023-03-20T02:01:30;93521.34;;;6.47;100.00
59367;BME280;45163;47.690;11.770;2023-03-20T02:03:56;93514.78;;;6.48;100.00
59367;BME280;45163;47.690;11.770;2023-03-20T02:06:23;93513.25;;;6.43;100.00
59367;BME280;45163;47.690;11.770;2023-03-20T02:08:51;93517.13;;;6.42;100.00
59367;BME280;45163;47.690;11.770;2023-03-20T02:11:20;93511.78;;;6.35;100.00
59367;BME280;45163;47.690;11.770;2023-03-20T02:13:49;93507.53;;;6.34;100.00
59367;BME280;45163;47.690;11.770;2023-03-20T02:16:16;93507.53;;;6.34;100.00
59367;BME280;45163;47.690;11.770;2023-03-20T02:18:44;93506.41;;;6.32;100.00
59367;BME280;45163;47.690;11.770;2023-03-20T02:38:08;93493.75;;;6.18;100.00
59367;BME280;45163;47.690;11.770;2023-03-20T02:40:46;93490.66;;;6.19;100.00
59367;BME280;45163;47.690;11.770;2023-03-20T02:48:56;93496.03;;;6.23;100.00
59367;BME280;45163;47.690;11.770;2023-03-20T02:51:39;93495.38;;;6.12;100.00
59367;BME280;45163;47.690;11.770;2023-03-20T02:54:22;93491.94;;;6.04;100.00
59367;BME280;45163;47.690;11.770;2023-03-20T02:57:00;93497.34;;;6.08;100.00
59367;BME280;45163;47.690;11.770;2023-03-20T02:59:34;93499.31;;;6.04;100.00
59367;BME280;45163;47.690;11.770;2023-03-20T03:02:10;93494.25;;;6.06;100.00
59367;BME280;45163;47.690;11.770;2023-03-20T03:05:01;93496.22;;;6.02;100.00
59367;BME280;45163;47.690;11.770;2023-03-20T03:07:28;93492.31;;;6.06;100.00
59367;BME280;45163;47.690;11.770;2023-03-20T03:10:04;93492.69;;;6.08;100.00
59367;BME280;45163;47.690;11.770;2023-03-20T03:12:35;93498.13;;;6.05;100.00
59367;BME280;45163;47.690;11.770;2023-03-20T03:15:06;93491.19;;;6.04;100.00
59367;BME280;45163;47.690;11.770;2023-03-20T03:17:36;93491.22;;;5.96;100.00
59367;BME280;45163;47.690;11.770;2023-03-20T03:20:07;93495.03;;;6.06;100.00
59367;BME280;45163;47.690;11.770;2023-03-20T03:22:34;93499.72;;;6.02;100.00
59367;BME280;45163;47.690;11.770;2023-03-20T03:25:01;93489.66;;;5.99;100.00
59367;BME280;45163;47.690;11.770;2023-03-20T03:27:33;93498.56;;;5.99;100.00
59367;BME280;45163;47.690;11.770;2023-03-20T03:30:10;93493.56;;;5.98;100.00
59367;BME280;45163;47.690;11.770;2023-03-20T03:35:16;93493.91;;;6.00;100.00
59367;BME280;45163;47.690;11.770;2023-03-20T03:40:36;93503.56;;;6.01;100.00
59367;BME280;45163;47.690;11.770;2023-03-20T03:43:32;93499.34;;;6.00;100.00
59367;BME280;45163;47.690;11.770;2023-03-20T03:46:09;93507.47;;;6.00;100.00
59367;BME280;45163;47.690;11.770;2023-03-20T03:48:44;93511.38;;;5.88;100.00
59367;BME280;45163;47.690;11.770;2023-03-20T03:51:15;93504.81;;;5.93;100.00
59367;BME280;45163;47.690;11.770;2023-03-20T03:53:57;93505.94;;;5.95;100.00
59367;BME280;45163;47.690;11.770;2023-03-20T03:56:25;93510.59;;;5.95;100.00
59367;BME280;45163;47.690;11.770;2023-03-20T03:58:57;93515.25;;;5.94;100.00
59367;BME280;45163;47.690;11.770;2023-03-20T04:01:25;93518.72;;;5.95;100.00
59367;BME280;45163;47.690;11.770;2023-03-20T04:03:58;93518.34;;;5.93;100.00
59367;BME280;45163;47.690;11.770;2023-03-20T04:06:28;93527.63;;;5.95;100.00
59367;BME280;45163;47.690;11.770;2023-03-20T04:08:54;93522.22;;;5.95;100.00
59367;BME280;45163;47.690;11.770;2023-03-20T04:11:22;93531.53;;;5.87;100.00
59367;BME280;45163;47.690;11.770;2023-03-20T04:13:53;93525.31;;;5.90;100.00
59367;BME280;45163;47.690;11.770;2023-03-20T04:16:21;93536.94;;;5.87;100.00
59367;BME280;45163;47.690;11.770;2023-03-20T04:18:47;93538.50;;;5.92;100.00
59367;BME280;45163;47.690;11.770;2023-03-20T04:21:14;93539.28;;;5.85;100.00
59367;BME280;45163;47.690;11.770;2023-03-20T04:23:41;93540.41;;;5.91;100.00
59367;BME280;45163;47.690;11.770;2023-03-20T04:26:07;93540.41;;;5.91;100.00
59367;BME280;45163;47.690;11.770;2023-03-20T04:28:33;93531.50;;;5.91;100.00
59367;BME280;45163;47.690;11.770;2023-03-20T04:31:00;93540.00;;;5.89;100.00
59367;BME280;45163;47.690;11.770;2023-03-20T04:33:27;93549.31;;;5.92;100.00
59367;BME280;45163;47.690;11.770;2023-03-20T04:35:54;93549.69;;;5.90;100.00
59367;BME280;45163;47.690;11.770;2023-03-20T04:38:21;93559.03;;;5.86;100.00
59367;BME280;45163;47.690;11.770;2023-03-20T04:40:48;93554.06;;;5.77;100.00
59367;BME280;45163;47.690;11.770;2023-03-20T04:43:14;93554.00;;;5.81;100.00
59367;BME280;45163;47.690;11.770;2023-03-20T04:45:40;93557.84;;;5.87;100.00
59367;BME280;45163;47.690;11.770;2023-03-20T04:48:07;93560.53;;;5.90;100.00
59367;BME280;45163;47.690;11.770;2023-03-20T04:50:33;93558.63;;;5.84;100.00
59367;BME280;45163;47.690;11.770;2023-03-20T04:52:59;93558.25;;;5.85;100.00
59367;BME280;45163;47.690;11.770;2023-03-20T04:55:25;93554.41;;;5.83;100.00
59367;BME280;45163;47.690;11.770;2023-03-20T04:57:51;93562.53;;;5.83;100.00
59367;BME280;45163;47.690;11.770;2023-03-20T05:00:17;93563.28;;;5.83;100.00
59367;BME280;45163;47.690;11.770;2023-03-20T05:02:43;93560.59;;;5.83;100.00
59367;BME280;45163;47.690;11.770;2023-03-20T05:05:10;93568.72;;;5.80;100.00
59367;BME280;45163;47.690;11.770;2023-03-20T05:07:36;93564.47;;;5.82;100.00
59367;BME280;45163;47.690;11.770;2023-03-20T05:10:03;93569.13;;;5.82;100.00
59367;BME280;45163;47.690;11.770;2023-03-20T05:12:30;93571.06;;;5.81;100.00
59367;BME280;45163;47.690;11.770;2023-03-20T05:14:56;93568.72;;;5.80;100.00
59367;BME280;45163;47.690;11.770;2023-03-20T05:17:22;93574.97;;;5.73;100.00
59367;BME280;45163;47.690;11.770;2023-03-20T05:19:49;93569.19;;;5.71;100.00
59367;BME280;45163;47.690;11.770;2023-03-20T05:22:16;93572.66;;;5.71;100.00
59367;BME280;45163;47.690;11.770;2023-03-20T05:24:42;93574.97;;;5.73;100.00
59367;BME280;45163;47.690;11.770;2023-03-20T05:27:08;93574.16;;;5.76;100.00
59367;BME280;45163;47.690;11.770;2023-03-20T05:29:35;93568.75;;;5.76;100.00
59367;BME280;45163;47.690;11.770;2023-03-20T05:32:01;93571.06;;;5.78;100.00
59367;BME280;45163;47.690;11.770;2023-03-20T05:34:27;93582.69;;;5.78;100.00
59367;BME280;45163;47.690;11.770;2023-03-20T05:36:53;93581.16;;;5.77;100.00
59367;BME280;45163;47.690;11.770;2023-03-20T05:39:19;93584.22;;;5.75;100.00
59367;BME280;45163;47.690;11.770;2023-03-20T05:41:45;93580.31;;;5.80;100.00
59367;BME280;45163;47.690;11.770;2023-03-20T05:44:11;93584.97;;;5.83;100.00
59367;BME280;45163;47.690;11.770;2023-03-20T05:46:37;93580.31;;;5.84;100.00
59367;BME280;45163;47.690;11.770;2023-03-20T05:49:03;93579.19;;;5.81;100.00
59367;BME280;45163;47.690;11.770;2023-03-20T05:51:29;93584.19;;;5.83;100.00
59367;BME280;45163;47.690;11.770;2023-03-20T05:53:55;93584.59;;;5.81;100.00
59367;BME280;45163;47.690;11.770;2023-03-20T05:56:21;93581.16;;;5.77;100.00
59367;BME280;45163;47.690;11.770;2023-03-20T05:58:47;93580.72;;;5.82;100.00
59367;BME280;45163;47.690;11.770;2023-03-20T06:01:13;93583.81;;;5.81;100.00
59367;BME280;45163;47.690;11.770;2023-03-20T06:03:42;93579.19;;;5.81;100.00
59367;BME280;45163;47.690;11.770;2023-03-20T06:06:08;93588.06;;;5.85;100.00
59367;BME280;45163;47.690;11.770;2023-03-20T06:08:34;93586.50;;;5.84;100.00
59367;BME280;45163;47.690;11.770;2023-03-20T06:11:02;93586.13;;;5.86;100.00
59367;BME280;45163;47.690;11.770;2023-03-20T06:13:28;93590.34;;;5.90;100.00
59367;BME280;45163;47.690;11.770;2023-03-20T06:15:54;93592.31;;;5.86;100.00
59367;BME280;45163;47.690;11.770;2023-03-20T06:18:20;93597.72;;;5.86;100.00
59367;BME280;45163;47.690;11.770;2023-03-20T06:20:53;93591.91;;;5.88;100.00
59367;BME280;45163;47.690;11.770;2023-03-20T06:23:20;93597.31;;;5.88;100.00
59367;BME280;45163;47.690;11.770;2023-03-20T06:25:46;93598.84;;;5.92;100.00
59367;BME280;45163;47.690;11.770;2023-03-20T06:28:12;93602.34;;;5.93;100.00
59367;BME280;45163;47.690;11.770;2023-03-20T06:30:38;93605.75;;;6.01;100.00
59367;BME280;45163;47.690;11.770;2023-03-20T06:33:07;93611.22;;;5.93;100.00
59367;BME280;45163;47.690;11.770;2023-03-20T06:35:34;93606.97;;;5.96;100.00
59367;BME280;45163;47.690;11.770;2023-03-20T06:38:00;93612.69;;;6.05;100.00
59367;BME280;45163;47.690;11.770;2023-03-20T06:40:27;93622.34;;;6.10;100.00
59367;BME280;45163;47.690;11.770;2023-03-20T06:42:53;93613.00;;;6.14;100.00
59367;BME280;45163;47.690;11.770;2023-03-20T06:45:20;93623.09;;;6.14;100.00
59367;BME280;45163;47.690;11.770;2023-03-20T06:47:47;93621.91;;;6.18;100.00
59367;BME280;45163;47.690;11.770;2023-03-20T06:50:13;93619.53;;;6.24;100.00
59367;BME280;45163;47.690;11.770;2023-03-20T06:52:39;93623.78;;;6.25;100.00
59367;BME280;45163;47.690;11.770;2023-03-20T06:55:06;93621.16;;;6.14;100.00
59367;BME280;45163;47.690;11.770;2023-03-20T06:57:32;93624.97;;;6.24;100.00
59367;BME280;45163;47.690;11.770;2023-03-20T06:59:58;93631.13;;;6.28;100.00
59367;BME280;45163;47.690;11.770;2023-03-20T07:02:24;93626.47;;;6.32;100.00
59367;BME280;45163;47.690;11.770;2023-03-20T07:04:51;93621.38;;;6.38;100.00
59367;BME280;45163;47.690;11.770;2023-03-20T07:07:17;93626.38;;;6.39;100.00
59367;BME280;45163;47.690;11.770;2023-03-20T07:09:43;93638.06;;;6.33;100.00
59367;BME280;45163;47.690;11.770;2023-03-20T07:12:14;93643.38;;;6.43;100.00
59367;BME280;45163;47.690;11.770;2023-03-20T07:14:43;93644.19;;;6.44;100.00
59367;BME280;45163;47.690;11.770;2023-03-20T07:17:09;93646.47;;;6.49;100.00
59367;BME280;45163;47.690;11.770;2023-03-20T07:19:36;93647.28;;;6.42;100.00
59367;BME280;45163;47.690;11.770;2023-03-20T07:22:05;93643.06;;;6.38;100.00
59367;BME280;45163;47.690;11.770;2023-03-20T07:24:32;93639.19;;;6.35;100.00
59367;BME280;45163;47.690;11.770;2023-03-20T07:26:59;93646.50;;;6.42;100.00
59367;BME280;45163;47.690;11.770;2023-03-20T07:29:26;93645.28;;;6.50;100.00
59367;BME280;45163;47.690;11.770;2023-03-20T07:31:52;93640.19;;;6.56;100.00
59367;BME280;45163;47.690;11.770;2023-03-20T07:34:18;93642.88;;;6.59;100.00
59367;BME280;45163;47.690;11.770;2023-03-20T07:36:44;93641.75;;;6.57;100.00
59367;BME280;45163;47.690;11.770;2023-03-20T07:39:12;93650.16;;;6.69;100.00
59367;BME280;45163;47.690;11.770;2023-03-20T07:41:38;93656.81;;;6.65;100.00
59367;BME280;45163;47.690;11.770;2023-03-20T07:44:04;93652.53;;;6.64;100.00
59367;BME280;45163;47.690;11.770;2023-03-20T07:46:32;93653.69;;;6.63;100.00
59367;BME280;45163;47.690;11.770;2023-03-20T07:48:58;93663.31;;;6.71;100.00
59367;BME280;45163;47.690;11.770;2023-03-20T07:51:24;93663.25;;;6.78;100.00
59367;BME280;45163;47.690;11.770;2023-03-20T07:53:50;93668.69;;;6.78;100.00
59367;BME280;45163;47.690;11.770;2023-03-20T07:56:16;93657.09;;;6.74;100.00
59367;BME280;45163;47.690;11.770;2023-03-20T07:58:42;93669.47;;;6.79;100.00
59367;BME280;45163;47.690;11.770;2023-03-20T08:01:08;93659.78;;;6.78;100.00
59367;BME280;45163;47.690;11.770;2023-03-20T08:03:34;93662.41;;;6.85;100.00
59367;BME280;45163;47.690;11.770;2023-03-20T08:06:00;93666.28;;;6.87;100.00
59367;BME280;45163;47.690;11.770;2023-03-20T08:08:26;93666.53;;;7.00;100.00
59367;BME280;45163;47.690;11.770;2023-03-20T08:10:52;93667.00;;;6.95;100.00
59367;BME280;45163;47.690;11.770;2023-03-20T08:13:18;93667.31;;;7.01;100.00
59367;BME280;45163;47.690;11.770;2023-03-20T08:15:45;93664.25;;;6.98;100.00
59367;BME280;45163;47.690;11.770;2023-03-20T08:18:11;93666.88;;;7.06;100.00
59367;BME280;45163;47.690;11.770;2023-03-20T08:20:37;93671.88;;;7.11;100.00
59367;BME280;45163;47.690;11.770;2023-03-20T08:23:03;93665.19;;;7.19;100.00
59367;BME280;45163;47.690;11.770;2023-03-20T08:25:29;93674.13;;;7.19;100.00
59367;BME280;45163;47.690;11.770;2023-03-20T08:27:59;93676.38;;;7.24;100.00
59367;BME280;45163;47.690;11.770;2023-03-20T08:30:26;93670.22;;;7.20;100.00
59367;BME280;45163;47.690;11.770;2023-03-20T08:32:52;93670.16;;;7.28;100.00
59367;BME280;45163;47.690;11.770;2023-03-20T08:35:18;93680.56;;;7.33;100.00
59367;BME280;45163;47.690;11.770;2023-03-20T08:37:44;93677.06;;;7.36;100.00
59367;BME280;45163;47.690;11.770;2023-03-20T08:40:11;93678.22;;;7.35;100.00
59367;BME280;45163;47.690;11.770;2023-03-20T08:42:37;93673.50;;;7.39;100.00
59367;BME280;45163;47.690;11.770;2023-03-20T08:45:03;93677.47;;;7.31;100.00
59367;BME280;45163;47.690;11.770;2023-03-20T08:47:29;93673.16;;;7.37;100.00
59367;BME280;45163;47.690;11.770;2023-03-20T08:49:55;93675.38;;;7.45;100.00
59367;BME280;45163;47.690;11.770;2023-03-20T08:52:21;93681.91;;;7.52;100.00
59367;BME280;45163;47.690;11.770;2023-03-20T08:54:47;93674.53;;;7.52;100.00
59367;BME280;45163;47.690;11.770;2023-03-20T08:57:13;93670.28;;;7.51;100.00
59367;BME280;45163;47.690;11.770;2023-03-20T08:59:39;93681.00;;;7.65;100.00
59367;BME280;45163;47.690;11.770;2023-03-20T09:02:05;93675.06;;;7.74;100.00
59367;BME280;45163;47.690;11.770;2023-03-20T09:04:32;93674.19;;;7.81;100.00
59367;BME280;45163;47.690;11.770;2023-03-20T09:06:57;93676.81;;;7.88;100.00
59367;BME280;45163;47.690;11.770;2023-03-20T09:09:25;93661.97;;;7.96;100.00
59367;BME280;45163;47.690;11.770;2023-03-20T09:11:57;93664.16;;;8.05;100.00
59367;BME280;45163;47.690;11.770;2023-03-20T09:14:24;93666.53;;;8.30;100.00
59367;BME280;45163;47.690;11.770;2023-03-20T09:16:50;93655.38;;;8.51;100.00
59367;BME280;45163;47.690;11.770;2023-03-20T09:19:17;93656.16;;;8.75;100.00
59367;BME280;45163;47.690;11.770;2023-03-20T09:21:44;93655.56;;;8.87;100.00
59367;BME280;45163;47.690;11.770;2023-03-20T09:24:10;93648.66;;;9.03;100.00
59367;BME280;45163;47.690;11.770;2023-03-20T09:26:37;93641.50;;;9.12;100.00
59367;BME280;45163;47.690;11.770;2023-03-20T09:29:04;93640.84;;;9.28;100.00
59367;BME280;45163;47.690;11.770;2023-03-20T09:31:30;93630.69;;;9.48;100.00
59367;BME280;45163;47.690;11.770;2023-03-20T09:33:56;93623.34;;;9.85;100.00
59367;BME280;45163;47.690;11.770;2023-03-20T09:36:22;93635.59;;;10.33;100.00
59367;BME280;45163;47.690;11.770;2023-03-20T09:38:48;93614.94;;;10.48;100.00
59367;BME280;45163;47.690;11.770;2023-03-20T09:41:20;93613.25;;;10.71;100.00
59367;BME280;45163;47.690;11.770;2023-03-20T09:47:37;93597.91;;;11.06;100.00
59367;BME280;45163;47.690;11.770;2023-03-20T09:53:02;93594.38;;;11.93;100.00
59367;BME280;45163;47.690;11.770;2023-03-20T09:55:34;93582.44;;;12.00;100.00
59367;BME280;45163;47.690;11.770;2023-03-20T09:58:11;93580.38;;;12.29;100.00
59367;BME280;45163;47.690;11.770;2023-03-20T10:00:39;93570.59;;;12.54;100.00
59367;BME280;45163;47.690;11.770;2023-03-20T10:03:16;93574.28;;;12.85;100.00
59367;BME280;45163;47.690;11.770;2023-03-20T10:05:58;93562.66;;;13.16;100.00
59367;BME280;45163;47.690;11.770;2023-03-20T10:08:29;93565.38;;;13.73;100.00
59367;BME280;45163;47.690;11.770;2023-03-20T10:20:13;93558.38;;;14.92;100.00
59367;BME280;45163;47.690;11.770;2023-03-20T10:23:06;93557.47;;;15.32;100.00
59367;BME280;45163;47.690;11.770;2023-03-20T10:25:53;93556.84;;;15.01;100.00
59367;BME280;45163;47.690;11.770;2023-03-20T10:28:25;93556.84;;;15.01;100.00
59367;BME280;45163;47.690;11.770;2023-03-20T10:31:29;93551.59;;;14.75;100.00
59367;BME280;45163;47.690;11.770;2023-03-20T10:34:12;93554.22;;;14.79;100.00
59367;BME280;45163;47.690;11.770;2023-03-20T10:36:44;93544.47;;;14.87;100.00
59367;BME280;45163;47.690;11.770;2023-03-20T10:39:32;93546.72;;;14.70;100.00
59367;BME280;45163;47.690;11.770;2023-03-20T10:42:03;93540.03;;;14.80;100.00
59367;BME280;45163;47.690;11.770;2023-03-20T10:44:40;93548.13;;;14.34;100.00
59367;BME280;45163;47.690;11.770;2023-03-20T10:47:11;93552.75;;;13.53;100.00
59367;BME280;45163;47.690;11.770;2023-03-20T10:49:46;93540.66;;;12.72;100.00
59367;BME280;45163;47.690;11.770;2023-03-20T10:52:18;93537.28;;;12.68;100.00
59367;BME280;45163;47.690;11.770;2023-03-20T10:54:49;93546.41;;;12.87;100.00
59367;BME280;45163;47.690;11.770;2023-03-20T10:57:26;93540.94;;;13.21;100.00
59367;BME280;45163;47.690;11.770;2023-03-20T10:59:57;93542.66;;;13.50;100.00
59367;BME280;45163;47.690;11.770;2023-03-20T11:02:28;93530.03;;;13.09;100.00
59367;BME280;45163;47.690;11.770;2023-03-20T11:04:55;93533.56;;;13.53;100.00
59367;BME280;45163;47.690;11.770;2023-03-20T11:12:49;93530.06;;;13.53;100.00
59367;BME280;45163;47.690;11.770;2023-03-20T11:15:30;93529.13;;;13.47;100.00
59367;BME280;45163;47.690;11.770;2023-03-20T11:18:01;93532.09;;;13.92;100.00
59367;BME280;45163;47.690;11.770;2023-03-20T11:20:33;93534.69;;;14.27;100.00
59367;BME280;45163;47.690;11.770;2023-03-20T11:23:03;93524.06;;;14.07;100.00
59367;BME280;45163;47.690;11.770;2023-03-20T11:25:32;93528.84;;;14.25;100.00
59367;BME280;45163;47.690;11.770;2023-03-20T11:28:26;93518.91;;;13.78;100.00
59367;BME280;45163;47.690;11.770;2023-03-20T11:31:23;93520.75;;;13.28;100.00
59367;BME280;45163;47.690;11.770;2023-03-20T11:33:59;93527.03;;;12.46;100.00
59367;BME280;45163;47.690;11.770;2023-03-20T11:36:33;93522.22;;;12.51;100.00
59367;BME280;45163;47.690;11.770;2023-03-20T11:39:14;93523.56;;;12.33;100.00
59367;BME280;45163;47.690;11.770;2023-03-20T11:44:24;93528.63;;;12.09;100.00
59367;BME280;45163;47.690;11.770;2023-03-20T11:47:14;93527.38;;;11.72;100.00
59367;BME280;45163;47.690;11.770;2023-03-20T11:49:46;93520.72;;;11.86;100.00
59367;BME280;45163;47.690;11.770;2023-03-20T11:52:20;93514.69;;;12.29;100.00
59367;BME280;45163;47.690;11.770;2023-03-20T11:54:51;93513.31;;;12.59;100.00
59367;BME280;45163;47.690;11.770;2023-03-20T11:57:39;93518.91;;;12.56;100.00
59367;BME280;45163;47.690;11.770;2023-03-20T12:00:22;93519.44;;;12.63;100.00
59367;BME280;45163;47.690;11.770;2023-03-20T12:02:49;93513.97;;;12.63;100.00
59367;BME280;45163;47.690;11.770;2023-03-20T12:05:32;93512.88;;;12.61;100.00
59367;BME280;45163;47.690;11.770;2023-03-20T12:08:12;93508.81;;;12.65;100.00
59367;BME280;45163;47.690;11.770;2023-03-20T12:10:42;93510.06;;;12.52;100.00
59367;BME280;45163;47.690;11.770;2023-03-20T12:13:21;93510.75;;;12.30;100.00
59367;BME280;45163;47.690;11.770;2023-03-20T12:15:53;93507.50;;;12.10;100.00
59367;BME280;45163;47.690;11.770;2023-03-20T12:18:32;93510.31;;;12.32;100.00
59367;BME280;45163;47.690;11.770;2023-03-20T12:21:10;93510.84;;;12.39;100.00
59367;BME280;45163;47.690;11.770;2023-03-20T12:23:47;93510.09;;;12.26;100.00
59367;BME280;45163;47.690;11.770;2023-03-20T12:26:34;93508.03;;;12.65;100.00
59367;BME280;45163;47.690;11.770;2023-03-20T12:29:06;93509.38;;;12.60;100.00
59367;BME280;45163;47.690;11.770;2023-03-20T12:31:45;93507.72;;;12.63;100.00
59367;BME280;45163;47.690;11.770;2023-03-20T12:34:23;93509.63;;;12.88;100.00
59367;BME280;45163;47.690;11.770;2023-03-20T12:36:51;93508.06;;;12.87;100.00
59367;BME280;45163;47.690;11.770;2023-03-20T12:39:20;93500.06;;;12.58;100.00
59367;BME280;45163;47.690;11.770;2023-03-20T12:50:37;93509.75;;;12.84;100.00
59367;BME280;45163;47.690;11.770;2023-03-20T13:15:01;93494.81;;;12.63;100.00
59367;BME280;45163;47.690;11.770;2023-03-20T13:17:49;93498.66;;;12.88;100.00
59367;BME280;45163;47.690;11.770;2023-03-20T13:28:26;93501.16;;;12.60;100.00
59367;BME280;45163;47.690;11.770;2023-03-20T13:33:41;93500.69;;;12.62;100.00
59367;BME280;45163;47.690;11.770;2023-03-20T13:36:28;93499.59;;;12.72;100.00
59367;BME280;45163;47.690;11.770;2023-03-20T13:39:04;93499.59;;;12.72;100.00
59367;BME280;45163;47.690;11.770;2023-03-20T13:41:33;93498.88;;;12.59;100.00
59367;BME280;45163;47.690;11.770;2023-03-20T13:44:02;93497.81;;;12.43;100.00
59367;BME280;45163;47.690;11.770;2023-03-20T13:49:32;93505.59;;;12.32;100.00
59367;BME280;45163;47.690;11.770;2023-03-20T13:52:15;93498.38;;;12.26;100.00
59367;BME280;45163;47.690;11.770;2023-03-20T14:03:16;93487.34;;;12.04;100.00
59367;BME280;45163;47.690;11.770;2023-03-20T14:05:45;93492.94;;;12.13;100.00
59367;BME280;45163;47.690;11.770;2023-03-20T14:13:33;93485.16;;;12.11;100.00
59367;BME280;45163;47.690;11.770;2023-03-20T14:16:11;93482.94;;;12.32;100.00
59367;BME280;45163;47.690;11.770;2023-03-20T14:18:40;93486.03;;;12.21;100.00
59367;BME280;45163;47.690;11.770;2023-03-20T14:21:11;93481.41;;;12.31;100.00
59367;BME280;45163;47.690;11.770;2023-03-20T14:23:41;93489.50;;;12.34;100.00
59367;BME280;45163;47.690;11.770;2023-03-20T14:26:19;93480.81;;;12.49;100.00
59367;BME280;45163;47.690;11.770;2023-03-20T14:29:01;93478.28;;;12.54;100.00
59367;BME280;45163;47.690;11.770;2023-03-20T14:31:30;93478.75;;;12.75;100.00
59367;BME280;45163;47.690;11.770;2023-03-20T14:34:20;93478.56;;;12.69;100.00
59367;BME280;45163;47.690;11.770;2023-03-20T14:37:13;93480.09;;;12.70;100.00
59367;BME280;45163;47.690;11.770;2023-03-20T14:42:34;93474.50;;;12.95;100.00
59367;BME280;45163;47.690;11.770;2023-03-20T14:48:10;93479.38;;;13.13;100.00
59367;BME280;45163;47.690;11.770;2023-03-20T14:53:21;93475.63;;;12.63;100.00
59367;BME280;45163;47.690;11.770;2023-03-20T15:01:04;93466.53;;;12.19;100.00
59367;BME280;45163;47.690;11.770;2023-03-20T15:03:31;93464.44;;;12.23;100.00
59367;BME280;45163;47.690;11.770;2023-03-20T15:06:04;93469.50;;;12.12;100.00
59367;BME280;45163;47.690;11.770;2023-03-20T15:08:43;93463.06;;;11.93;100.00
59367;BME280;45163;47.690;11.770;2023-03-20T15:11:12;93461.78;;;11.85;100.00
59367;BME280;45163;47.690;11.770;2023-03-20T15:13:40;93462.97;;;11.84;100.00
59367;BME280;45163;47.690;11.770;2023-03-20T15:16:12;93457.91;;;11.69;100.00